sensor_id;sensor_type;location;lat;lon;timestamp;P1;durP1;ratioP1;P2;durP2;ratioP2
50417;SDS011;36346;48.280;14.292;2022-07-21T00:00:56;4.79;;;4.79;;
50417;SDS011;36346;48.280;14.292;2022-07-21T00:03:24;5.36;;;5.36;;
50417;SDS011;36346;48.280;14.292;2022-07-21T00:05:52;5.31;;;5.31;;
50417;SDS011;36346;48.280;14.292;2022-07-21T00:08:20;4.95;;;4.95;;
50417;SDS011;36346;48.280;14.292;2022-07-21T00:10:48;5.30;;;5.30;;
50417;SDS011;36346;48.280;14.292;2022-07-21T00:13:16;5.26;;;5.26;;
50417;SDS011;36346;48.280;14.292;2022-07-21T00:15:44;5.41;;;5.41;;
50417;SDS011;36346;48.280;14.292;2022-07-21T00:18:13;5.21;;;5.21;;
50417;SDS011;36346;48.280;14.292;2022-07-21T00:20:41;5.24;;;5.24;;
50417;SDS011;36346;48.280;14.292;2022-07-21T00:23:09;5.35;;;5.35;;
50417;SDS011;36346;48.280;14.292;2022-07-21T00:25:37;5.55;;;5.55;;
50417;SDS011;36346;48.280;14.292;2022-07-21T00:28:05;5.20;;;5.20;;
50417;SDS011;36346;48.280;14.292;2022-07-21T00:30:34;5.55;;;5.55;;
50417;SDS011;36346;48.280;14.292;2022-07-21T00:33:02;5.45;;;5.45;;
50417;SDS011;36346;48.280;14.292;2022-07-21T00:35:30;5.65;;;5.65;;
50417;SDS011;36346;48.280;14.292;2022-07-21T00:37:58;5.20;;;5.20;;
50417;SDS011;36346;48.280;14.292;2022-07-21T00:40:27;5.23;;;5.23;;
50417;SDS011;36346;48.280;14.292;2022-07-21T00:42:56;5.71;;;5.71;;
50417;SDS011;36346;48.280;14.292;2022-07-21T00:45:24;5.69;;;5.69;;
50417;SDS011;36346;48.280;14.292;2022-07-21T00:47:52;5.50;;;5.50;;
50417;SDS011;36346;48.280;14.292;2022-07-21T00:50:21;5.79;;;5.79;;
50417;SDS011;36346;48.280;14.292;2022-07-21T00:52:50;5.72;;;5.72;;
50417;SDS011;36346;48.280;14.292;2022-07-21T00:55:19;5.54;;;5.54;;
50417;SDS011;36346;48.280;14.292;2022-07-21T00:57:49;5.49;;;5.49;;
50417;SDS011;36346;48.280;14.292;2022-07-21T01:00:20;5.39;;;5.39;;
50417;SDS011;36346;48.280;14.292;2022-07-21T01:02:51;5.47;;;5.47;;
50417;SDS011;36346;48.280;14.292;2022-07-21T01:05:19;5.51;;;5.51;;
50417;SDS011;36346;48.280;14.292;2022-07-21T01:07:49;5.75;;;5.75;;
50417;SDS011;36346;48.280;14.292;2022-07-21T01:10:22;5.80;;;5.80;;
50417;SDS011;36346;48.280;14.292;2022-07-21T01:12:51;5.98;;;5.98;;
50417;SDS011;36346;48.280;14.292;2022-07-21T01:15:19;5.85;;;5.85;;
50417;SDS011;36346;48.280;14.292;2022-07-21T01:17:48;5.34;;;5.34;;
50417;SDS011;36346;48.280;14.292;2022-07-21T01:20:18;5.37;;;5.37;;
50417;SDS011;36346;48.280;14.292;2022-07-21T01:22:48;5.78;;;5.78;;
50417;SDS011;36346;48.280;14.292;2022-07-21T01:25:18;5.49;;;5.49;;
50417;SDS011;36346;48.280;14.292;2022-07-21T01:27:47;5.50;;;5.50;;
50417;SDS011;36346;48.280;14.292;2022-07-21T01:30:15;5.44;;;5.44;;
50417;SDS011;36346;48.280;14.292;2022-07-21T01:32:44;5.53;;;5.53;;
50417;SDS011;36346;48.280;14.292;2022-07-21T01:35:13;5.48;;;5.48;;
50417;SDS011;36346;48.280;14.292;2022-07-21T01:37:43;5.34;;;5.34;;
50417;SDS011;36346;48.280;14.292;2022-07-21T01:40:13;5.49;;;5.49;;
50417;SDS011;36346;48.280;14.292;2022-07-21T01:43:02;5.46;;;5.46;;
50417;SDS011;36346;48.280;14.292;2022-07-21T01:45:39;5.68;;;5.68;;
50417;SDS011;36346;48.280;14.292;2022-07-21T01:48:08;5.84;;;5.84;;
50417;SDS011;36346;48.280;14.292;2022-07-21T01:50:37;5.24;;;5.24;;
50417;SDS011;36346;48.280;14.292;2022-07-21T01:53:06;5.52;;;5.52;;
50417;SDS011;36346;48.280;14.292;2022-07-21T01:55:34;5.56;;;5.56;;
50417;SDS011;36346;48.280;14.292;2022-07-21T01:58:02;5.49;;;5.49;;
50417;SDS011;36346;48.280;14.292;2022-07-21T02:00:31;5.78;;;5.78;;
50417;SDS011;36346;48.280;14.292;2022-07-21T02:02:59;5.73;;;5.73;;
50417;SDS011;36346;48.280;14.292;2022-07-21T02:05:27;5.76;;;5.76;;
50417;SDS011;36346;48.280;14.292;2022-07-21T02:07:55;5.60;;;5.60;;
50417;SDS011;36346;48.280;14.292;2022-07-21T02:10:23;5.75;;;5.75;;
50417;SDS011;36346;48.280;14.292;2022-07-21T02:12:51;6.25;;;6.25;;
50417;SDS011;36346;48.280;14.292;2022-07-21T02:15:19;6.19;;;6.19;;
50417;SDS011;36346;48.280;14.292;2022-07-21T02:17:47;6.09;;;6.09;;
50417;SDS011;36346;48.280;14.292;2022-07-21T02:20:15;5.99;;;5.99;;
50417;SDS011;36346;48.280;14.292;2022-07-21T02:22:43;5.78;;;5.78;;
50417;SDS011;36346;48.280;14.292;2022-07-21T02:25:13;6.18;;;6.18;;
50417;SDS011;36346;48.280;14.292;2022-07-21T02:27:42;5.97;;;5.97;;
50417;SDS011;36346;48.280;14.292;2022-07-21T02:30:11;6.22;;;6.22;;
50417;SDS011;36346;48.280;14.292;2022-07-21T02:32:40;6.21;;;6.21;;
50417;SDS011;36346;48.280;14.292;2022-07-21T02:35:09;5.93;;;5.93;;
50417;SDS011;36346;48.280;14.292;2022-07-21T02:37:37;5.87;;;5.87;;
50417;SDS011;36346;48.280;14.292;2022-07-21T02:40:06;6.25;;;6.25;;
50417;SDS011;36346;48.280;14.292;2022-07-21T02:42:35;6.12;;;6.12;;
50417;SDS011;36346;48.280;14.292;2022-07-21T02:45:05;6.00;;;6.00;;
50417;SDS011;36346;48.280;14.292;2022-07-21T02:50:41;6.07;;;6.07;;
50417;SDS011;36346;48.280;14.292;2022-07-21T02:53:15;6.20;;;6.20;;
50417;SDS011;36346;48.280;14.292;2022-07-21T02:55:47;6.33;;;6.33;;
50417;SDS011;36346;48.280;14.292;2022-07-21T02:58:18;6.47;;;6.47;;
50417;SDS011;36346;48.280;14.292;2022-07-21T03:00:54;6.50;;;6.50;;
50417;SDS011;36346;48.280;14.292;2022-07-21T03:03:24;6.76;;;6.76;;
50417;SDS011;36346;48.280;14.292;2022-07-21T03:05:54;6.73;;;6.73;;
50417;SDS011;36346;48.280;14.292;2022-07-21T03:08:23;7.77;;;7.77;;
50417;SDS011;36346;48.280;14.292;2022-07-21T03:10:52;8.08;;;8.08;;
50417;SDS011;36346;48.280;14.292;2022-07-21T03:13:20;7.02;;;7.02;;
50417;SDS011;36346;48.280;14.292;2022-07-21T03:15:48;7.41;;;7.41;;
50417;SDS011;36346;48.280;14.292;2022-07-21T03:18:17;7.14;;;7.14;;
50417;SDS011;36346;48.280;14.292;2022-07-21T03:20:45;7.10;;;7.10;;
50417;SDS011;36346;48.280;14.292;2022-07-21T03:23:13;6.94;;;6.94;;
50417;SDS011;36346;48.280;14.292;2022-07-21T03:25:42;6.92;;;6.92;;
50417;SDS011;36346;48.280;14.292;2022-07-21T03:28:10;7.02;;;7.02;;
50417;SDS011;36346;48.280;14.292;2022-07-21T03:30:38;7.11;;;7.11;;
50417;SDS011;36346;48.280;14.292;2022-07-21T03:33:06;7.51;;;7.51;;
50417;SDS011;36346;48.280;14.292;2022-07-21T03:35:34;7.58;;;7.58;;
50417;SDS011;36346;48.280;14.292;2022-07-21T03:38:04;7.32;;;7.32;;
50417;SDS011;36346;48.280;14.292;2022-07-21T03:40:34;7.74;;;7.74;;
50417;SDS011;36346;48.280;14.292;2022-07-21T03:43:03;7.89;;;7.89;;
50417;SDS011;36346;48.280;14.292;2022-07-21T03:45:33;8.02;;;8.02;;
50417;SDS011;36346;48.280;14.292;2022-07-21T03:48:02;7.83;;;7.83;;
50417;SDS011;36346;48.280;14.292;2022-07-21T03:50:33;7.53;;;7.53;;
50417;SDS011;36346;48.280;14.292;2022-07-21T03:53:03;7.92;;;7.92;;
50417;SDS011;36346;48.280;14.292;2022-07-21T03:55:31;7.85;;;7.85;;
50417;SDS011;36346;48.280;14.292;2022-07-21T03:58:00;8.12;;;8.12;;
50417;SDS011;36346;48.280;14.292;2022-07-21T04:00:32;8.53;;;8.53;;
50417;SDS011;36346;48.280;14.292;2022-07-21T04:03:06;8.30;;;8.30;;
50417;SDS011;36346;48.280;14.292;2022-07-21T04:05:35;8.65;;;8.65;;
50417;SDS011;36346;48.280;14.292;2022-07-21T04:08:05;8.50;;;8.50;;
50417;SDS011;36346;48.280;14.292;2022-07-21T04:10:35;8.96;;;8.96;;
50417;SDS011;36346;48.280;14.292;2022-07-21T04:13:06;9.03;;;9.03;;
50417;SDS011;36346;48.280;14.292;2022-07-21T04:15:35;9.33;;;9.33;;
50417;SDS011;36346;48.280;14.292;2022-07-21T04:18:04;9.93;;;9.93;;
50417;SDS011;36346;48.280;14.292;2022-07-21T04:20:33;9.69;;;9.69;;
50417;SDS011;36346;48.280;14.292;2022-07-21T04:23:02;9.73;;;9.73;;
50417;SDS011;36346;48.280;14.292;2022-07-21T04:25:31;9.78;;;9.78;;
50417;SDS011;36346;48.280;14.292;2022-07-21T04:27:59;9.64;;;9.64;;
50417;SDS011;36346;48.280;14.292;2022-07-21T04:30:27;10.20;;;10.20;;
50417;SDS011;36346;48.280;14.292;2022-07-21T04:32:55;9.82;;;9.82;;
50417;SDS011;36346;48.280;14.292;2022-07-21T04:35:23;9.88;;;9.88;;
50417;SDS011;36346;48.280;14.292;2022-07-21T04:37:51;9.64;;;9.64;;
50417;SDS011;36346;48.280;14.292;2022-07-21T04:40:19;9.73;;;9.73;;
50417;SDS011;36346;48.280;14.292;2022-07-21T04:42:47;10.26;;;10.26;;
50417;SDS011;36346;48.280;14.292;2022-07-21T04:45:15;10.47;;;10.47;;
50417;SDS011;36346;48.280;14.292;2022-07-21T04:47:49;11.22;;;11.22;;
50417;SDS011;36346;48.280;14.292;2022-07-21T04:50:20;10.68;;;10.68;;
50417;SDS011;36346;48.280;14.292;2022-07-21T04:52:49;11.48;;;11.48;;
50417;SDS011;36346;48.280;14.292;2022-07-21T04:55:18;11.20;;;11.20;;
50417;SDS011;36346;48.280;14.292;2022-07-21T04:57:48;12.15;;;12.15;;
50417;SDS011;36346;48.280;14.292;2022-07-21T05:00:18;11.47;;;11.47;;
50417;SDS011;36346;48.280;14.292;2022-07-21T05:02:49;11.01;;;11.01;;
50417;SDS011;36346;48.280;14.292;2022-07-21T05:05:17;11.66;;;11.66;;
50417;SDS011;36346;48.280;14.292;2022-07-21T05:07:46;25.56;;;25.56;;
50417;SDS011;36346;48.280;14.292;2022-07-21T05:10:15;19.01;;;19.01;;
50417;SDS011;36346;48.280;14.292;2022-07-21T05:12:45;17.06;;;17.06;;
50417;SDS011;36346;48.280;14.292;2022-07-21T05:15:13;17.06;;;17.06;;
50417;SDS011;36346;48.280;14.292;2022-07-21T05:17:41;17.89;;;17.89;;
50417;SDS011;36346;48.280;14.292;2022-07-21T05:20:09;18.16;;;18.16;;
50417;SDS011;36346;48.280;14.292;2022-07-21T05:22:38;16.56;;;16.56;;
50417;SDS011;36346;48.280;14.292;2022-07-21T05:25:06;17.34;;;17.34;;
50417;SDS011;36346;48.280;14.292;2022-07-21T05:27:35;25.35;;;25.29;;
50417;SDS011;36346;48.280;14.292;2022-07-21T05:30:04;27.65;;;27.60;;
50417;SDS011;36346;48.280;14.292;2022-07-21T05:32:32;18.64;;;18.63;;
50417;SDS011;36346;48.280;14.292;2022-07-21T05:35:00;16.04;;;16.04;;
50417;SDS011;36346;48.280;14.292;2022-07-21T05:37:28;17.45;;;17.45;;
50417;SDS011;36346;48.280;14.292;2022-07-21T05:39:56;15.48;;;15.48;;
50417;SDS011;36346;48.280;14.292;2022-07-21T05:42:24;15.62;;;15.62;;
50417;SDS011;36346;48.280;14.292;2022-07-21T05:44:52;14.63;;;14.63;;
50417;SDS011;36346;48.280;14.292;2022-07-21T05:47:20;12.11;;;12.11;;
50417;SDS011;36346;48.280;14.292;2022-07-21T05:49:48;11.45;;;11.45;;
50417;SDS011;36346;48.280;14.292;2022-07-21T05:52:16;11.59;;;11.59;;
50417;SDS011;36346;48.280;14.292;2022-07-21T05:54:48;11.12;;;11.12;;
50417;SDS011;36346;48.280;14.292;2022-07-21T05:57:16;11.39;;;11.39;;
50417;SDS011;36346;48.280;14.292;2022-07-21T05:59:45;10.27;;;10.27;;
50417;SDS011;36346;48.280;14.292;2022-07-21T06:02:13;9.31;;;9.31;;
50417;SDS011;36346;48.280;14.292;2022-07-21T06:04:41;9.84;;;9.84;;
50417;SDS011;36346;48.280;14.292;2022-07-21T06:07:09;9.67;;;9.67;;
50417;SDS011;36346;48.280;14.292;2022-07-21T06:09:37;8.86;;;8.86;;
50417;SDS011;36346;48.280;14.292;2022-07-21T06:12:05;8.95;;;8.95;;
50417;SDS011;36346;48.280;14.292;2022-07-21T06:14:33;8.62;;;8.62;;
50417;SDS011;36346;48.280;14.292;2022-07-21T06:17:01;9.26;;;9.26;;
50417;SDS011;36346;48.280;14.292;2022-07-21T06:19:29;10.68;;;10.68;;
50417;SDS011;36346;48.280;14.292;2022-07-21T06:21:59;10.85;;;10.85;;
50417;SDS011;36346;48.280;14.292;2022-07-21T06:24:27;10.95;;;10.95;;
50417;SDS011;36346;48.280;14.292;2022-07-21T06:26:55;9.54;;;9.54;;
50417;SDS011;36346;48.280;14.292;2022-07-21T06:29:29;10.20;;;10.20;;
50417;SDS011;36346;48.280;14.292;2022-07-21T06:31:57;14.44;;;14.44;;
50417;SDS011;36346;48.280;14.292;2022-07-21T06:34:25;10.83;;;10.83;;
50417;SDS011;36346;48.280;14.292;2022-07-21T06:36:53;10.03;;;10.03;;
50417;SDS011;36346;48.280;14.292;2022-07-21T06:39:21;11.05;;;11.05;;
50417;SDS011;36346;48.280;14.292;2022-07-21T06:41:49;9.86;;;9.86;;
50417;SDS011;36346;48.280;14.292;2022-07-21T06:44:19;9.44;;;9.44;;
50417;SDS011;36346;48.280;14.292;2022-07-21T06:46:47;9.84;;;9.84;;
50417;SDS011;36346;48.280;14.292;2022-07-21T06:49:15;10.08;;;10.08;;
50417;SDS011;36346;48.280;14.292;2022-07-21T06:51:43;10.56;;;10.56;;
50417;SDS011;36346;48.280;14.292;2022-07-21T06:54:11;9.32;;;9.32;;
50417;SDS011;36346;48.280;14.292;2022-07-21T06:56:39;10.26;;;10.26;;
50417;SDS011;36346;48.280;14.292;2022-07-21T06:59:06;11.65;;;11.65;;
50417;SDS011;36346;48.280;14.292;2022-07-21T07:01:34;10.70;;;10.70;;
50417;SDS011;36346;48.280;14.292;2022-07-21T07:04:03;11.58;;;11.58;;
50417;SDS011;36346;48.280;14.292;2022-07-21T07:06:32;11.53;;;11.53;;
50417;SDS011;36346;48.280;14.292;2022-07-21T07:09:00;12.36;;;12.36;;
50417;SDS011;36346;48.280;14.292;2022-07-21T07:11:28;10.97;;;10.97;;
50417;SDS011;36346;48.280;14.292;2022-07-21T07:13:56;11.66;;;11.66;;
50417;SDS011;36346;48.280;14.292;2022-07-21T07:16:38;11.82;;;11.82;;
50417;SDS011;36346;48.280;14.292;2022-07-21T07:19:06;14.44;;;14.29;;
50417;SDS011;36346;48.280;14.292;2022-07-21T07:21:34;13.05;;;13.03;;
50417;SDS011;36346;48.280;14.292;2022-07-21T07:24:02;14.44;;;14.43;;
50417;SDS011;36346;48.280;14.292;2022-07-21T07:26:32;14.04;;;14.04;;
50417;SDS011;36346;48.280;14.292;2022-07-21T07:29:00;13.72;;;13.72;;
50417;SDS011;36346;48.280;14.292;2022-07-21T07:31:28;13.25;;;13.25;;
50417;SDS011;36346;48.280;14.292;2022-07-21T07:33:56;13.25;;;13.25;;
50417;SDS011;36346;48.280;14.292;2022-07-21T07:36:25;13.72;;;13.72;;
50417;SDS011;36346;48.280;14.292;2022-07-21T07:38:55;12.80;;;12.80;;
50417;SDS011;36346;48.280;14.292;2022-07-21T07:41:24;12.15;;;12.15;;
50417;SDS011;36346;48.280;14.292;2022-07-21T07:43:53;11.69;;;11.69;;
50417;SDS011;36346;48.280;14.292;2022-07-21T07:46:22;11.56;;;11.56;;
50417;SDS011;36346;48.280;14.292;2022-07-21T07:48:50;11.51;;;11.51;;
50417;SDS011;36346;48.280;14.292;2022-07-21T07:51:18;11.41;;;11.41;;
50417;SDS011;36346;48.280;14.292;2022-07-21T07:53:46;12.05;;;12.05;;
50417;SDS011;36346;48.280;14.292;2022-07-21T07:56:14;11.93;;;11.93;;
50417;SDS011;36346;48.280;14.292;2022-07-21T07:58:42;11.33;;;11.33;;
50417;SDS011;36346;48.280;14.292;2022-07-21T08:01:10;11.63;;;11.63;;
50417;SDS011;36346;48.280;14.292;2022-07-21T08:03:41;11.78;;;11.78;;
50417;SDS011;36346;48.280;14.292;2022-07-21T08:06:09;11.36;;;11.36;;
50417;SDS011;36346;48.280;14.292;2022-07-21T08:08:37;11.52;;;11.52;;
50417;SDS011;36346;48.280;14.292;2022-07-21T08:11:05;10.47;;;10.47;;
50417;SDS011;36346;48.280;14.292;2022-07-21T08:13:33;10.61;;;10.61;;
50417;SDS011;36346;48.280;14.292;2022-07-21T08:16:02;10.55;;;10.55;;
50417;SDS011;36346;48.280;14.292;2022-07-21T08:18:30;10.53;;;10.53;;
50417;SDS011;36346;48.280;14.292;2022-07-21T08:20:58;10.87;;;10.87;;
50417;SDS011;36346;48.280;14.292;2022-07-21T08:23:26;10.92;;;10.92;;
50417;SDS011;36346;48.280;14.292;2022-07-21T08:25:54;10.34;;;10.34;;
50417;SDS011;36346;48.280;14.292;2022-07-21T08:28:22;10.07;;;10.07;;
50417;SDS011;36346;48.280;14.292;2022-07-21T08:30:50;10.31;;;10.31;;
50417;SDS011;36346;48.280;14.292;2022-07-21T08:33:18;10.77;;;10.77;;
50417;SDS011;36346;48.280;14.292;2022-07-21T08:35:46;11.47;;;11.47;;
50417;SDS011;36346;48.280;14.292;2022-07-21T08:38:14;10.91;;;10.91;;
50417;SDS011;36346;48.280;14.292;2022-07-21T08:40:44;10.69;;;10.69;;
50417;SDS011;36346;48.280;14.292;2022-07-21T08:43:13;10.63;;;10.63;;
50417;SDS011;36346;48.280;14.292;2022-07-21T08:45:42;10.81;;;10.81;;
50417;SDS011;36346;48.280;14.292;2022-07-21T08:48:10;11.14;;;11.14;;
50417;SDS011;36346;48.280;14.292;2022-07-21T08:50:39;10.45;;;10.45;;
50417;SDS011;36346;48.280;14.292;2022-07-21T08:53:08;11.92;;;11.88;;
50417;SDS011;36346;48.280;14.292;2022-07-21T08:55:36;11.00;;;10.91;;
50417;SDS011;36346;48.280;14.292;2022-07-21T08:58:09;10.89;;;10.89;;
50417;SDS011;36346;48.280;14.292;2022-07-21T09:00:38;12.08;;;12.08;;
50417;SDS011;36346;48.280;14.292;2022-07-21T09:08:31;13.33;;;13.26;;
50417;SDS011;36346;48.280;14.292;2022-07-21T09:16:37;9.88;;;9.88;;
50417;SDS011;36346;48.280;14.292;2022-07-21T09:19:06;10.27;;;10.27;;
50417;SDS011;36346;48.280;14.292;2022-07-21T09:21:44;9.93;;;9.93;;
50417;SDS011;36346;48.280;14.292;2022-07-21T09:29:56;9.87;;;9.87;;
50417;SDS011;36346;48.280;14.292;2022-07-21T09:32:35;9.64;;;9.64;;
50417;SDS011;36346;48.280;14.292;2022-07-21T09:35:08;9.85;;;9.85;;
50417;SDS011;36346;48.280;14.292;2022-07-21T09:37:41;9.42;;;9.42;;
50417;SDS011;36346;48.280;14.292;2022-07-21T09:40:13;9.46;;;9.46;;
50417;SDS011;36346;48.280;14.292;2022-07-21T09:42:44;9.61;;;9.61;;
50417;SDS011;36346;48.280;14.292;2022-07-21T09:45:17;9.07;;;9.07;;
50417;SDS011;36346;48.280;14.292;2022-07-21T09:47:47;9.44;;;9.44;;
50417;SDS011;36346;48.280;14.292;2022-07-21T09:50:16;8.71;;;8.71;;
50417;SDS011;36346;48.280;14.292;2022-07-21T09:52:53;8.98;;;8.98;;
50417;SDS011;36346;48.280;14.292;2022-07-21T09:55:23;9.02;;;9.02;;
50417;SDS011;36346;48.280;14.292;2022-07-21T09:57:51;8.67;;;8.67;;
50417;SDS011;36346;48.280;14.292;2022-07-21T10:00:23;8.38;;;8.38;;
50417;SDS011;36346;48.280;14.292;2022-07-21T10:02:51;8.59;;;8.59;;
50417;SDS011;36346;48.280;14.292;2022-07-21T10:05:20;8.97;;;8.97;;
50417;SDS011;36346;48.280;14.292;2022-07-21T10:07:57;9.14;;;9.14;;
50417;SDS011;36346;48.280;14.292;2022-07-21T10:10:34;8.69;;;8.69;;
50417;SDS011;36346;48.280;14.292;2022-07-21T10:13:22;9.39;;;9.39;;
50417;SDS011;36346;48.280;14.292;2022-07-21T10:15:51;8.78;;;8.78;;
50417;SDS011;36346;48.280;14.292;2022-07-21T10:18:22;9.01;;;9.01;;
50417;SDS011;36346;48.280;14.292;2022-07-21T10:21:02;8.92;;;8.92;;
50417;SDS011;36346;48.280;14.292;2022-07-21T10:23:40;9.07;;;9.07;;
50417;SDS011;36346;48.280;14.292;2022-07-21T10:26:10;8.69;;;8.69;;
50417;SDS011;36346;48.280;14.292;2022-07-21T10:28:39;8.69;;;8.69;;
50417;SDS011;36346;48.280;14.292;2022-07-21T10:36:39;8.61;;;8.61;;
50417;SDS011;36346;48.280;14.292;2022-07-21T10:41:36;8.55;;;8.55;;
50417;SDS011;36346;48.280;14.292;2022-07-21T10:49:48;8.06;;;8.06;;
50417;SDS011;36346;48.280;14.292;2022-07-21T10:57:41;9.26;;;9.26;;
50417;SDS011;36346;48.280;14.292;2022-07-21T11:00:21;8.52;;;8.52;;
50417;SDS011;36346;48.280;14.292;2022-07-21T11:03:03;8.58;;;8.58;;
50417;SDS011;36346;48.280;14.292;2022-07-21T11:08:44;8.39;;;8.39;;
50417;SDS011;36346;48.280;14.292;2022-07-21T11:11:35;8.73;;;8.73;;
50417;SDS011;36346;48.280;14.292;2022-07-21T11:14:14;9.00;;;9.00;;
50417;SDS011;36346;48.280;14.292;2022-07-21T11:22:30;8.86;;;8.86;;
50417;SDS011;36346;48.280;14.292;2022-07-21T11:25:00;12.47;;;12.47;;
50417;SDS011;36346;48.280;14.292;2022-07-21T11:27:35;10.07;;;10.07;;
50417;SDS011;36346;48.280;14.292;2022-07-21T11:30:05;22.22;;;22.22;;
50417;SDS011;36346;48.280;14.292;2022-07-21T11:32:35;9.14;;;9.14;;
50417;SDS011;36346;48.280;14.292;2022-07-21T11:35:05;8.55;;;8.55;;
50417;SDS011;36346;48.280;14.292;2022-07-21T11:37:42;9.19;;;9.19;;
50417;SDS011;36346;48.280;14.292;2022-07-21T11:40:18;9.20;;;9.20;;
50417;SDS011;36346;48.280;14.292;2022-07-21T11:42:50;10.56;;;10.56;;
50417;SDS011;36346;48.280;14.292;2022-07-21T11:45:23;9.12;;;9.12;;
50417;SDS011;36346;48.280;14.292;2022-07-21T11:47:55;9.55;;;9.55;;
50417;SDS011;36346;48.280;14.292;2022-07-21T11:50:23;8.74;;;8.74;;
50417;SDS011;36346;48.280;14.292;2022-07-21T11:52:53;8.09;;;8.09;;
50417;SDS011;36346;48.280;14.292;2022-07-21T11:55:22;8.55;;;8.55;;
50417;SDS011;36346;48.280;14.292;2022-07-21T11:57:49;8.77;;;8.77;;
50417;SDS011;36346;48.280;14.292;2022-07-21T12:00:17;8.57;;;8.57;;
50417;SDS011;36346;48.280;14.292;2022-07-21T12:02:48;8.47;;;8.47;;
50417;SDS011;36346;48.280;14.292;2022-07-21T12:05:17;8.56;;;8.56;;
50417;SDS011;36346;48.280;14.292;2022-07-21T12:07:48;8.54;;;8.54;;
50417;SDS011;36346;48.280;14.292;2022-07-21T12:10:21;9.05;;;9.05;;
50417;SDS011;36346;48.280;14.292;2022-07-21T12:12:51;8.65;;;8.65;;
50417;SDS011;36346;48.280;14.292;2022-07-21T12:15:23;8.12;;;8.12;;
50417;SDS011;36346;48.280;14.292;2022-07-21T12:17:59;8.65;;;8.65;;
50417;SDS011;36346;48.280;14.292;2022-07-21T12:20:31;8.70;;;8.70;;
50417;SDS011;36346;48.280;14.292;2022-07-21T12:23:17;8.98;;;8.98;;
50417;SDS011;36346;48.280;14.292;2022-07-21T12:25:49;8.79;;;8.79;;
50417;SDS011;36346;48.280;14.292;2022-07-21T12:28:41;8.76;;;8.76;;
50417;SDS011;36346;48.280;14.292;2022-07-21T12:31:13;8.83;;;8.83;;
50417;SDS011;36346;48.280;14.292;2022-07-21T12:33:44;8.33;;;8.33;;
50417;SDS011;36346;48.280;14.292;2022-07-21T12:36:32;8.45;;;8.45;;
50417;SDS011;36346;48.280;14.292;2022-07-21T12:42:31;8.45;;;8.45;;
50417;SDS011;36346;48.280;14.292;2022-07-21T12:45:19;9.58;;;9.58;;
50417;SDS011;36346;48.280;14.292;2022-07-21T12:48:05;8.67;;;8.67;;
50417;SDS011;36346;48.280;14.292;2022-07-21T12:50:34;9.21;;;9.21;;
50417;SDS011;36346;48.280;14.292;2022-07-21T12:53:09;8.86;;;8.86;;
50417;SDS011;36346;48.280;14.292;2022-07-21T12:55:38;8.82;;;8.82;;
50417;SDS011;36346;48.280;14.292;2022-07-21T12:58:07;8.44;;;8.44;;
50417;SDS011;36346;48.280;14.292;2022-07-21T13:00:35;8.07;;;8.07;;
50417;SDS011;36346;48.280;14.292;2022-07-21T13:03:03;8.58;;;8.58;;
50417;SDS011;36346;48.280;14.292;2022-07-21T13:05:31;8.35;;;8.35;;
50417;SDS011;36346;48.280;14.292;2022-07-21T13:07:59;8.40;;;8.40;;
50417;SDS011;36346;48.280;14.292;2022-07-21T13:10:27;8.32;;;8.32;;
50417;SDS011;36346;48.280;14.292;2022-07-21T13:12:56;8.09;;;8.09;;
50417;SDS011;36346;48.280;14.292;2022-07-21T13:15:24;8.74;;;8.74;;
50417;SDS011;36346;48.280;14.292;2022-07-21T13:17:52;8.98;;;8.98;;
50417;SDS011;36346;48.280;14.292;2022-07-21T13:20:20;9.08;;;9.08;;
50417;SDS011;36346;48.280;14.292;2022-07-21T13:22:49;10.08;;;10.08;;
50417;SDS011;36346;48.280;14.292;2022-07-21T13:25:17;9.69;;;9.69;;
50417;SDS011;36346;48.280;14.292;2022-07-21T13:27:45;9.88;;;9.88;;
50417;SDS011;36346;48.280;14.292;2022-07-21T13:30:15;9.44;;;9.44;;
50417;SDS011;36346;48.280;14.292;2022-07-21T13:32:44;9.82;;;9.82;;
50417;SDS011;36346;48.280;14.292;2022-07-21T13:35:12;9.39;;;9.39;;
50417;SDS011;36346;48.280;14.292;2022-07-21T13:37:54;10.31;;;10.31;;
50417;SDS011;36346;48.280;14.292;2022-07-21T13:40:22;10.11;;;10.11;;
50417;SDS011;36346;48.280;14.292;2022-07-21T13:43:11;10.57;;;10.57;;
50417;SDS011;36346;48.280;14.292;2022-07-21T13:45:59;11.18;;;11.18;;
50417;SDS011;36346;48.280;14.292;2022-07-21T13:48:27;10.50;;;10.50;;
50417;SDS011;36346;48.280;14.292;2022-07-21T13:50:55;11.32;;;11.32;;
50417;SDS011;36346;48.280;14.292;2022-07-21T13:53:23;11.32;;;11.32;;
50417;SDS011;36346;48.280;14.292;2022-07-21T13:55:52;11.39;;;11.39;;
50417;SDS011;36346;48.280;14.292;2022-07-21T13:58:21;13.77;;;13.77;;
50417;SDS011;36346;48.280;14.292;2022-07-21T14:00:49;14.03;;;14.03;;
50417;SDS011;36346;48.280;14.292;2022-07-21T14:03:19;12.01;;;12.01;;
50417;SDS011;36346;48.280;14.292;2022-07-21T14:05:47;13.44;;;13.44;;
50417;SDS011;36346;48.280;14.292;2022-07-21T14:08:15;12.77;;;12.77;;
50417;SDS011;36346;48.280;14.292;2022-07-21T14:10:43;10.89;;;10.89;;
50417;SDS011;36346;48.280;14.292;2022-07-21T14:13:11;11.08;;;11.08;;
50417;SDS011;36346;48.280;14.292;2022-07-21T14:15:39;10.94;;;10.94;;
50417;SDS011;36346;48.280;14.292;2022-07-21T14:18:07;11.39;;;11.39;;
50417;SDS011;36346;48.280;14.292;2022-07-21T14:20:35;11.40;;;11.40;;
50417;SDS011;36346;48.280;14.292;2022-07-21T14:23:05;11.61;;;11.61;;
50417;SDS011;36346;48.280;14.292;2022-07-21T14:25:33;12.32;;;12.32;;
50417;SDS011;36346;48.280;14.292;2022-07-21T14:28:01;11.40;;;11.40;;
50417;SDS011;36346;48.280;14.292;2022-07-21T14:30:29;11.45;;;11.45;;
50417;SDS011;36346;48.280;14.292;2022-07-21T14:32:57;11.05;;;11.05;;
50417;SDS011;36346;48.280;14.292;2022-07-21T14:35:25;11.38;;;11.38;;
50417;SDS011;36346;48.280;14.292;2022-07-21T14:37:55;11.45;;;11.45;;
50417;SDS011;36346;48.280;14.292;2022-07-21T14:40:23;11.59;;;11.59;;
50417;SDS011;36346;48.280;14.292;2022-07-21T14:42:52;10.95;;;10.95;;
50417;SDS011;36346;48.280;14.292;2022-07-21T14:45:21;11.12;;;11.12;;
50417;SDS011;36346;48.280;14.292;2022-07-21T14:47:50;10.72;;;10.72;;
50417;SDS011;36346;48.280;14.292;2022-07-21T14:50:20;9.93;;;9.93;;
50417;SDS011;36346;48.280;14.292;2022-07-21T14:52:54;10.65;;;10.65;;
50417;SDS011;36346;48.280;14.292;2022-07-21T14:55:24;10.66;;;10.66;;
50417;SDS011;36346;48.280;14.292;2022-07-21T14:57:53;11.55;;;11.55;;
50417;SDS011;36346;48.280;14.292;2022-07-21T15:00:21;10.80;;;10.80;;
50417;SDS011;36346;48.280;14.292;2022-07-21T15:02:54;10.70;;;10.70;;
50417;SDS011;36346;48.280;14.292;2022-07-21T15:05:22;10.88;;;10.88;;
50417;SDS011;36346;48.280;14.292;2022-07-21T15:07:50;10.48;;;10.48;;
50417;SDS011;36346;48.280;14.292;2022-07-21T15:10:19;10.98;;;10.98;;
50417;SDS011;36346;48.280;14.292;2022-07-21T15:12:47;10.60;;;10.60;;
50417;SDS011;36346;48.280;14.292;2022-07-21T15:15:15;10.90;;;10.90;;
50417;SDS011;36346;48.280;14.292;2022-07-21T15:17:43;11.07;;;11.07;;
50417;SDS011;36346;48.280;14.292;2022-07-21T15:20:11;10.30;;;10.30;;
50417;SDS011;36346;48.280;14.292;2022-07-21T15:22:41;9.96;;;9.96;;
50417;SDS011;36346;48.280;14.292;2022-07-21T15:25:09;10.08;;;10.08;;
50417;SDS011;36346;48.280;14.292;2022-07-21T15:27:39;10.01;;;10.01;;
50417;SDS011;36346;48.280;14.292;2022-07-21T15:30:09;9.62;;;9.62;;